createdAt,value
2024-01-24T00:02:06.968Z,4.20
2024-01-24T00:04:39.446Z,4.30
2024-01-24T00:07:09.442Z,3.80
2024-01-24T00:09:39.371Z,4.40
2024-01-24T00:12:10.228Z,4.43
2024-01-24T00:14:40.291Z,4.35
2024-01-24T00:17:10.212Z,3.33
2024-01-24T00:19:42.736Z,4.82
2024-01-24T00:22:13.185Z,3.80
2024-01-24T00:24:43.150Z,3.65
2024-01-24T00:27:13.265Z,4.03
2024-01-24T00:29:43.713Z,4.38
2024-01-24T00:32:13.588Z,3.83
2024-01-24T00:34:46.103Z,4.13
2024-01-24T00:37:16.560Z,4.75
2024-01-24T00:39:48.039Z,3.67
2024-01-24T00:42:18.023Z,4.40
2024-01-24T00:44:46.548Z,4.30
2024-01-24T00:47:16.616Z,3.80
2024-01-24T00:49:49.104Z,4.65
2024-01-24T00:52:19.004Z,3.95
2024-01-24T00:54:48.993Z,3.10
2024-01-24T00:57:18.974Z,3.72
2024-01-24T00:59:48.876Z,3.13
2024-01-24T01:02:19.340Z,3.60
2024-01-24T01:04:51.852Z,3.20
2024-01-24T01:07:21.789Z,3.08
2024-01-24T01:09:51.984Z,3.40
2024-01-24T01:12:21.928Z,3.20
2024-01-24T01:14:52.058Z,2.80
2024-01-24T01:17:21.952Z,3.22
2024-01-24T01:19:54.417Z,3.22
2024-01-24T01:22:24.668Z,3.72
2024-01-24T01:24:54.640Z,3.58
2024-01-24T01:27:24.560Z,2.70
2024-01-24T01:29:54.514Z,3.35
2024-01-24T01:32:24.506Z,2.92
2024-01-24T01:34:57.219Z,2.80
2024-01-24T01:37:27.533Z,2.88
2024-01-24T01:39:57.597Z,2.50
2024-01-24T01:42:27.636Z,2.60
2024-01-24T01:44:57.551Z,2.25
2024-01-24T01:47:28.355Z,2.20
2024-01-24T01:50:01.247Z,1.98
2024-01-24T01:52:31.715Z,1.90
2024-01-24T01:55:01.719Z,2.75
2024-01-24T01:57:31.702Z,1.95
2024-01-24T02:00:01.919Z,2.03
2024-01-24T02:02:34.360Z,2.05
2024-01-24T02:05:08.138Z,2.13
2024-01-24T02:07:38.255Z,2.00
2024-01-24T02:10:08.763Z,2.05
2024-01-24T02:12:38.722Z,1.70
2024-01-24T02:15:10.237Z,2.17
2024-01-24T02:17:40.218Z,2.10
2024-01-24T02:20:14.395Z,1.80
2024-01-24T02:22:44.333Z,1.60
2024-01-24T02:25:16.877Z,1.55
2024-01-24T02:27:47.988Z,1.48
2024-01-24T02:30:18.951Z,1.40
2024-01-24T02:32:49.018Z,1.10
2024-01-24T02:35:19.777Z,1.23
2024-01-24T02:37:49.685Z,1.20
2024-01-24T02:40:22.711Z,1.02
2024-01-24T02:42:52.660Z,1.27
2024-01-24T02:45:22.723Z,1.00
2024-01-24T02:47:52.781Z,0.95
2024-01-24T02:50:22.744Z,1.00
2024-01-24T02:52:52.802Z,1.08
2024-01-24T02:55:25.269Z,0.70
2024-01-24T02:57:55.270Z,0.88
2024-01-24T03:00:25.295Z,0.88
2024-01-24T03:02:55.198Z,0.50
2024-01-24T03:05:25.155Z,0.90
2024-01-24T03:07:55.068Z,0.90
2024-01-24T03:10:28.779Z,0.68
2024-01-24T03:12:58.858Z,0.60
2024-01-24T03:15:29.008Z,0.70
2024-01-24T03:17:59.139Z,0.70
2024-01-24T03:20:29.087Z,0.88
2024-01-24T03:22:59.551Z,1.00
2024-01-24T03:25:32.754Z,0.80
2024-01-24T03:28:03.301Z,0.60
2024-01-24T03:30:35.052Z,0.52
2024-01-24T03:33:06.019Z,0.60
2024-01-24T03:35:36.009Z,0.50
2024-01-24T03:38:05.982Z,0.57
2024-01-24T03:40:38.607Z,0.40
2024-01-24T03:43:10.018Z,0.55
2024-01-24T03:45:40.716Z,0.50
2024-01-24T03:48:11.415Z,0.40
2024-01-24T03:50:42.023Z,0.50
2024-01-24T03:53:11.949Z,0.63
2024-01-24T03:55:44.590Z,0.82
2024-01-24T03:58:14.549Z,0.60
2024-01-24T04:00:44.520Z,0.80
2024-01-24T04:03:14.539Z,0.88
2024-01-24T04:05:44.515Z,1.05
2024-01-24T04:08:14.454Z,1.20
2024-01-24T04:10:47.058Z,1.60
2024-01-24T04:13:16.967Z,2.00
2024-01-24T04:15:47.174Z,1.63
2024-01-24T04:18:17.237Z,0.90
2024-01-24T04:20:47.363Z,1.00
2024-01-24T04:23:17.314Z,0.60
2024-01-24T04:25:51.005Z,0.93
2024-01-24T04:28:21.033Z,0.80
2024-01-24T04:30:50.972Z,0.80
2024-01-24T04:33:21.038Z,0.95
2024-01-24T04:35:51.051Z,0.88
2024-01-24T04:38:21.035Z,0.70
2024-01-24T04:40:56.422Z,0.63
2024-01-24T04:43:26.379Z,0.60
2024-01-24T04:45:56.307Z,0.47
2024-01-24T04:48:26.390Z,0.52
2024-01-24T04:50:56.399Z,0.80
2024-01-24T04:53:26.332Z,0.60
2024-01-24T04:55:58.816Z,0.60
2024-01-24T04:58:28.937Z,0.80
2024-01-24T05:00:59.577Z,0.77
2024-01-24T05:03:29.569Z,0.60
2024-01-24T05:06:04.837Z,0.60
2024-01-24T05:08:40.410Z,0.38
2024-01-24T05:11:12.935Z,0.63
2024-01-24T05:13:43.037Z,0.80
2024-01-24T05:16:12.898Z,0.70
2024-01-24T05:18:42.890Z,0.70
2024-01-24T05:21:12.952Z,0.73
2024-01-24T05:23:43.928Z,1.00
2024-01-24T05:26:16.625Z,0.60
2024-01-24T05:28:46.530Z,0.70
2024-01-24T05:31:16.553Z,0.52
2024-01-24T05:33:46.598Z,0.65
2024-01-24T05:36:16.618Z,0.90
2024-01-24T05:38:46.605Z,0.75
2024-01-24T05:41:20.125Z,0.90
2024-01-24T05:43:50.247Z,1.17
2024-01-24T05:46:20.130Z,1.10
2024-01-24T05:48:50.175Z,1.95
2024-01-24T05:51:20.299Z,2.22
2024-01-24T05:53:50.204Z,2.13
2024-01-24T05:56:23.116Z,1.88
2024-01-24T05:58:53.026Z,1.45
2024-01-24T06:01:23.047Z,1.85
2024-01-24T06:03:53.216Z,1.77
2024-01-24T06:06:23.315Z,1.67
2024-01-24T06:08:53.823Z,1.25
2024-01-24T06:11:26.286Z,1.85
2024-01-24T06:13:56.198Z,2.10
2024-01-24T06:16:26.102Z,1.80
2024-01-24T06:18:56.054Z,2.10
2024-01-24T06:21:26.021Z,1.73
2024-01-24T06:23:55.978Z,2.80
2024-01-24T06:26:28.605Z,2.38
2024-01-24T06:28:58.479Z,2.38
2024-01-24T06:31:28.434Z,2.10
2024-01-24T06:33:58.407Z,2.08
2024-01-24T06:36:30.017Z,2.53
2024-01-24T06:39:00.006Z,2.20
2024-01-24T06:41:32.487Z,2.15
2024-01-24T06:44:02.511Z,2.58
2024-01-24T06:46:32.505Z,1.90
2024-01-24T06:49:02.590Z,2.55
2024-01-24T06:51:32.739Z,1.92
2024-01-24T06:54:02.742Z,3.75
2024-01-24T06:56:35.443Z,2.35
2024-01-24T06:59:05.993Z,2.58
2024-01-24T07:01:35.975Z,2.78
2024-01-24T07:04:06.403Z,3.53
2024-01-24T07:06:36.548Z,2.88
2024-01-24T07:09:06.610Z,2.30
2024-01-24T07:11:41.511Z,2.60
2024-01-24T07:14:11.400Z,3.40
2024-01-24T07:16:41.316Z,2.70
2024-01-24T07:19:11.353Z,2.80
2024-01-24T07:21:41.432Z,3.08
2024-01-24T07:24:11.769Z,2.65
2024-01-24T07:26:44.987Z,2.22
2024-01-24T07:29:14.981Z,2.78
2024-01-24T07:31:44.883Z,2.63
2024-01-24T07:34:15.691Z,2.47
2024-01-24T07:36:45.954Z,2.58
2024-01-24T07:39:15.924Z,2.83
2024-01-24T07:41:48.293Z,3.30
2024-01-24T07:44:18.328Z,3.67
2024-01-24T07:46:48.298Z,4.32
2024-01-24T07:49:18.946Z,4.32
2024-01-24T07:51:50.534Z,3.83
2024-01-24T07:54:23.636Z,4.05
2024-01-24T07:56:57.037Z,3.83
2024-01-24T07:59:27.048Z,3.85
2024-01-24T08:01:57.144Z,3.65
2024-01-24T08:04:27.187Z,4.25
2024-01-24T08:06:57.567Z,5.25
2024-01-24T08:09:27.703Z,3.35
2024-01-24T08:12:00.321Z,3.83
2024-01-24T08:14:30.513Z,4.13
2024-01-24T08:17:05.111Z,3.78
2024-01-24T08:19:35.160Z,4.15
2024-01-24T08:22:05.366Z,3.97
2024-01-24T08:24:35.419Z,4.03
2024-01-24T08:27:08.204Z,4.85
2024-01-24T08:29:38.477Z,3.95
2024-01-24T08:32:09.086Z,3.95
2024-01-24T08:34:40.306Z,3.83
2024-01-24T08:37:10.605Z,4.82
2024-01-24T08:39:40.625Z,3.47
2024-01-24T08:42:13.180Z,3.88
2024-01-24T08:44:43.088Z,4.03
2024-01-24T08:47:13.382Z,3.42
2024-01-24T08:49:43.327Z,4.30
2024-01-24T08:52:13.544Z,3.58
2024-01-24T08:54:46.624Z,5.30
2024-01-24T08:57:19.453Z,3.95
2024-01-24T08:59:49.565Z,4.65
2024-01-24T09:02:20.790Z,4.55
2024-01-24T09:04:53.050Z,3.67
2024-01-24T09:07:23.824Z,3.80
2024-01-24T09:09:53.863Z,3.10
2024-01-24T09:12:26.540Z,3.95
2024-01-24T09:14:56.517Z,4.03
2024-01-24T09:17:26.610Z,3.45
2024-01-24T09:19:56.625Z,3.80
2024-01-24T09:22:26.914Z,3.90
2024-01-24T09:24:56.863Z,3.78
2024-01-24T09:27:29.425Z,4.32
2024-01-24T09:29:59.317Z,4.40
2024-01-24T09:32:29.328Z,3.60
2024-01-24T09:34:59.513Z,3.63
2024-01-24T09:37:29.526Z,3.13
2024-01-24T09:39:59.832Z,4.18
2024-01-24T09:42:34.954Z,5.00
2024-01-24T09:45:11.060Z,4.00
2024-01-24T09:47:42.439Z,4.20
2024-01-24T09:50:14.290Z,4.25
2024-01-24T09:52:47.240Z,4.15
2024-01-24T09:55:19.713Z,3.90
2024-01-24T09:57:52.530Z,4.28
2024-01-24T10:00:23.005Z,4.57
2024-01-24T10:02:53.172Z,4.50
2024-01-24T10:05:27.420Z,4.63
2024-01-24T10:07:58.999Z,3.97
2024-01-24T10:10:31.872Z,4.32
2024-01-24T10:13:06.874Z,3.50
2024-01-24T10:15:38.999Z,3.65
2024-01-24T10:18:11.321Z,4.32
2024-01-24T10:20:44.610Z,3.95
2024-01-24T10:23:22.849Z,3.85
2024-01-24T10:25:52.873Z,4.90
2024-01-24T10:28:25.626Z,3.50
2024-01-24T10:30:55.665Z,4.03
2024-01-24T10:33:26.673Z,4.10
2024-01-24T10:35:59.402Z,4.47
2024-01-24T10:38:34.980Z,4.32
2024-01-24T10:41:05.847Z,3.88
2024-01-24T10:43:42.845Z,4.57
2024-01-24T10:46:13.926Z,3.35
2024-01-24T10:48:45.121Z,3.65
2024-01-24T10:51:15.611Z,4.07
2024-01-24T10:53:47.493Z,4.18
2024-01-24T10:56:19.615Z,4.05
2024-01-24T10:58:53.159Z,4.35
2024-01-24T11:01:23.267Z,3.88
2024-01-24T11:03:55.272Z,4.22
2024-01-24T11:06:28.560Z,3.45
2024-01-24T11:09:04.884Z,4.30
2024-01-24T11:11:37.579Z,3.85
2024-01-24T11:14:12.959Z,3.95
2024-01-24T11:16:42.937Z,4.57
2024-01-24T11:19:24.529Z,3.40
2024-01-24T11:21:56.489Z,4.65
2024-01-24T11:24:51.529Z,4.43
2024-01-24T11:27:34.185Z,4.20
2024-01-24T11:30:20.728Z,3.28
2024-01-24T11:33:06.544Z,3.88
2024-01-24T11:35:38.651Z,4.32
2024-01-24T11:38:19.995Z,3.70
2024-01-24T11:40:56.285Z,4.20
2024-01-24T11:43:27.902Z,4.35
2024-01-24T11:46:02.877Z,4.40
2024-01-24T11:48:34.522Z,4.13
2024-01-24T11:51:05.635Z,4.70
2024-01-24T11:53:36.155Z,3.67
2024-01-24T11:56:08.340Z,4.25
2024-01-24T11:58:38.337Z,3.15
2024-01-24T12:01:13.688Z,3.63
2024-01-24T12:03:51.298Z,4.68
2024-01-24T12:06:22.574Z,3.97
2024-01-24T12:08:53.915Z,3.22
2024-01-24T12:11:25.025Z,3.38
2024-01-24T12:13:55.073Z,3.65
2024-01-24T12:16:29.580Z,4.35
2024-01-24T12:19:00.371Z,3.97
2024-01-24T12:21:30.924Z,3.63
2024-01-24T12:24:01.002Z,4.07
2024-01-24T12:26:33.417Z,3.83
2024-01-24T12:29:04.742Z,3.60
2024-01-24T12:31:39.406Z,2.83
2024-01-24T12:34:11.231Z,3.08
2024-01-24T12:36:41.418Z,3.95
2024-01-24T12:39:11.555Z,3.53
2024-01-24T12:41:41.961Z,3.85
2024-01-24T12:44:13.351Z,4.18
2024-01-24T12:46:46.331Z,3.35
2024-01-24T12:49:17.036Z,4.13
2024-01-24T12:51:47.129Z,3.13
2024-01-24T12:54:17.132Z,3.42
2024-01-24T12:56:49.325Z,3.53
2024-01-24T12:59:21.817Z,3.20
2024-01-24T13:01:57.391Z,4.63
2024-01-24T13:04:27.655Z,3.88
2024-01-24T13:06:57.933Z,3.70
2024-01-24T13:09:28.117Z,3.17
2024-01-24T13:11:59.710Z,4.22
2024-01-24T13:14:30.127Z,3.65
2024-01-24T13:17:04.779Z,3.30
2024-01-24T13:19:35.068Z,3.47
2024-01-24T13:22:05.090Z,3.72
2024-01-24T13:24:35.436Z,3.60
2024-01-24T13:27:05.666Z,3.17
2024-01-24T13:29:35.702Z,3.50
2024-01-24T13:32:09.272Z,4.25
2024-01-24T13:34:39.259Z,2.47
2024-01-24T13:37:09.444Z,3.40
2024-01-24T13:39:40.481Z,3.50
2024-01-24T13:42:10.896Z,4.07
2024-01-24T13:44:40.884Z,4.10
2024-01-24T13:47:13.413Z,3.75
2024-01-24T13:49:44.824Z,3.90
2024-01-24T13:52:15.412Z,3.30
2024-01-24T13:54:46.096Z,3.28
2024-01-24T13:57:16.216Z,3.30
2024-01-24T13:59:46.176Z,3.75
2024-01-24T14:02:18.959Z,3.53
2024-01-24T14:04:49.110Z,3.33
2024-01-24T14:07:20.889Z,3.88
2024-01-24T14:09:50.953Z,3.65
2024-01-24T14:12:21.174Z,3.97
2024-01-24T14:14:51.127Z,3.70
2024-01-24T14:17:24.059Z,3.53
2024-01-24T14:19:54.143Z,3.47
2024-01-24T14:22:24.253Z,3.33
2024-01-24T14:24:54.537Z,3.08
2024-01-24T14:27:27.589Z,2.70
2024-01-24T14:29:57.971Z,2.90
2024-01-24T14:32:34.456Z,3.47
2024-01-24T14:35:04.555Z,3.28
2024-01-24T14:37:34.670Z,3.20
2024-01-24T14:40:04.847Z,2.97
2024-01-24T14:42:36.654Z,3.65
2024-01-24T14:45:07.882Z,3.45
2024-01-24T14:47:40.438Z,3.03
2024-01-24T14:50:12.611Z,3.53
2024-01-24T14:52:42.681Z,2.75
2024-01-24T14:55:13.495Z,4.13
2024-01-24T14:57:46.631Z,3.42
2024-01-24T15:00:21.153Z,3.00
2024-01-24T15:02:53.954Z,3.25
2024-01-24T15:05:25.405Z,3.35
2024-01-24T15:07:55.920Z,3.53
2024-01-24T15:10:26.067Z,3.38
2024-01-24T15:12:56.040Z,2.80
2024-01-24T15:15:28.236Z,3.10
2024-01-24T15:18:00.974Z,3.30
2024-01-24T15:20:38.301Z,2.63
2024-01-24T15:44:20.169Z,3.20
2024-01-24T16:13:13.398Z,3.88
2024-01-24T16:15:43.486Z,3.55
2024-01-24T16:18:15.182Z,3.40
2024-01-24T16:20:45.181Z,3.28
2024-01-24T16:23:15.113Z,4.28
2024-01-24T16:25:45.100Z,3.78
2024-01-24T16:28:17.694Z,3.50
2024-01-24T16:30:47.635Z,3.90
2024-01-24T16:33:18.721Z,3.67
2024-01-24T16:35:48.775Z,3.75
2024-01-24T16:38:18.786Z,3.88
2024-01-24T16:40:48.781Z,3.60
2024-01-24T16:43:21.480Z,3.95
2024-01-24T16:45:52.004Z,3.85
2024-01-24T16:48:22.063Z,4.15
2024-01-24T16:50:52.204Z,3.63
2024-01-24T16:53:22.181Z,3.92
2024-01-24T16:55:52.285Z,3.08
2024-01-24T16:58:24.863Z,3.38
2024-01-24T17:00:54.882Z,3.97
2024-01-24T17:03:24.975Z,3.95
2024-01-24T17:05:54.941Z,3.97
2024-01-24T17:08:24.868Z,3.22
2024-01-24T17:10:54.769Z,3.75
2024-01-24T17:13:27.217Z,4.32
2024-01-24T17:15:57.119Z,3.30
2024-01-24T17:18:27.809Z,3.03
2024-01-24T17:20:57.841Z,3.72
2024-01-24T17:23:27.723Z,3.38
2024-01-24T17:25:57.692Z,3.28
2024-01-24T17:28:30.225Z,3.83
2024-01-24T17:31:00.272Z,4.28
2024-01-24T17:33:30.417Z,3.47
2024-01-24T17:36:00.428Z,3.90
2024-01-24T17:38:30.881Z,3.50
2024-01-24T17:41:01.619Z,3.40
2024-01-24T17:43:35.286Z,4.53
2024-01-24T17:46:05.673Z,4.85
2024-01-24T17:48:38.156Z,4.18
2024-01-24T17:51:08.536Z,4.55
2024-01-24T17:53:38.642Z,4.13
2024-01-24T17:56:09.494Z,3.45
2024-01-24T17:58:42.255Z,4.47
2024-01-24T18:01:12.320Z,3.60
2024-01-24T18:03:42.469Z,3.92
2024-01-24T18:06:12.954Z,4.72
2024-01-24T18:08:42.981Z,3.17
2024-01-24T18:11:13.392Z,3.95
2024-01-24T18:13:46.100Z,4.00
2024-01-24T18:16:16.220Z,4.47
2024-01-24T18:18:47.835Z,4.15
2024-01-24T18:21:17.908Z,4.13
2024-01-24T18:23:47.846Z,4.60
2024-01-24T18:26:17.755Z,3.88
2024-01-24T18:28:51.771Z,4.15
2024-01-24T18:31:22.014Z,3.40
2024-01-24T18:33:52.021Z,4.03
2024-01-24T18:36:22.106Z,3.50
2024-01-24T18:38:52.101Z,4.80
2024-01-24T18:41:23.357Z,4.00
2024-01-24T18:43:55.900Z,4.00
2024-01-24T18:46:26.688Z,3.97
2024-01-24T18:48:57.314Z,3.55
2024-01-24T18:51:28.841Z,3.92
2024-01-24T18:53:58.989Z,4.40
2024-01-24T18:56:30.284Z,3.35
2024-01-24T18:59:03.642Z,4.40
2024-01-24T19:01:34.086Z,3.58
2024-01-24T19:04:04.262Z,3.42
2024-01-24T19:06:34.350Z,3.90
2024-01-24T19:09:05.305Z,3.45
2024-01-24T19:11:35.422Z,3.90
2024-01-24T19:14:08.103Z,3.80
2024-01-24T19:16:38.376Z,3.85
2024-01-24T19:19:08.749Z,4.13
2024-01-24T19:21:40.459Z,3.42
2024-01-24T19:24:10.709Z,4.00
2024-01-24T19:26:44.300Z,3.17
2024-01-24T19:29:17.094Z,4.07
2024-01-24T19:31:47.362Z,3.90
2024-01-24T19:34:17.639Z,3.95
2024-01-24T19:36:47.719Z,4.47
2024-01-24T19:39:17.847Z,3.67
2024-01-24T19:41:47.827Z,4.38
2024-01-24T19:44:20.829Z,4.00
2024-01-24T19:46:52.862Z,3.75
2024-01-24T19:49:23.081Z,3.55
2024-01-24T19:51:54.194Z,4.05
2024-01-24T19:54:24.740Z,4.10
2024-01-24T19:56:55.748Z,3.90
2024-01-24T19:59:28.328Z,3.90
2024-01-24T20:01:59.086Z,4.22
2024-01-24T20:04:29.214Z,4.78
2024-01-24T20:06:59.316Z,4.80
2024-01-24T20:09:29.310Z,4.45
2024-01-24T20:11:59.297Z,4.30
2024-01-24T20:14:31.880Z,4.22
2024-01-24T20:17:02.047Z,4.25
2024-01-24T20:19:32.225Z,4.07
2024-01-24T20:22:02.231Z,4.57
2024-01-24T20:24:32.289Z,4.82
2024-01-24T20:27:02.379Z,4.32
2024-01-24T20:29:35.106Z,4.50
2024-01-24T20:32:05.385Z,4.60
2024-01-24T20:34:35.600Z,5.07
2024-01-24T20:37:07.211Z,5.70
2024-01-24T20:39:37.368Z,4.53
2024-01-24T20:42:11.239Z,4.70
2024-01-24T20:44:46.624Z,4.88
2024-01-24T20:47:17.052Z,4.95
2024-01-24T20:49:47.246Z,4.82
2024-01-24T20:52:17.347Z,4.65
2024-01-24T20:54:47.375Z,5.15
2024-01-24T20:57:17.606Z,4.65
2024-01-24T20:59:50.919Z,4.72
2024-01-24T21:02:21.631Z,5.78
2024-01-24T21:04:52.135Z,5.43
2024-01-24T21:07:23.221Z,5.25
2024-01-24T21:09:53.712Z,5.40
2024-01-24T21:12:23.730Z,4.18
2024-01-24T21:14:56.271Z,5.40
2024-01-24T21:17:26.262Z,5.25
2024-01-24T21:22:26.668Z,4.72
2024-01-24T21:24:56.795Z,4.40
2024-01-24T21:27:28.443Z,4.82
2024-01-24T21:30:01.103Z,4.97
2024-01-24T21:32:31.138Z,5.65
2024-01-24T21:35:01.498Z,5.30
2024-01-24T21:37:31.533Z,5.00
2024-01-24T21:40:01.520Z,4.40
2024-01-24T21:42:31.633Z,4.43
2024-01-24T21:45:04.860Z,5.25
2024-01-24T21:47:34.892Z,5.60
2024-01-24T21:50:04.919Z,5.43
2024-01-24T21:52:34.975Z,4.80
2024-01-24T21:55:05.069Z,4.97
2024-01-24T21:57:35.233Z,5.15
2024-01-24T22:00:09.243Z,4.63
2024-01-24T22:02:39.253Z,5.68
2024-01-24T22:05:09.733Z,4.03
2024-01-24T22:07:39.967Z,5.43
2024-01-24T22:10:11.682Z,5.07
2024-01-24T22:12:41.929Z,5.13
2024-01-24T22:15:16.872Z,5.43
2024-01-24T22:17:46.883Z,6.05
2024-01-24T22:20:17.221Z,5.53
2024-01-24T22:22:47.314Z,5.47
2024-01-24T22:25:17.392Z,5.28
2024-01-24T22:27:47.431Z,5.63
2024-01-24T22:30:20.596Z,5.22
2024-01-24T22:32:50.660Z,5.15
2024-01-24T22:35:22.455Z,5.57
2024-01-24T22:37:52.618Z,4.80
2024-01-24T22:40:22.710Z,5.50
2024-01-24T22:42:52.815Z,5.95
2024-01-24T22:45:25.429Z,5.80
2024-01-24T22:47:56.288Z,5.38
2024-01-24T22:50:26.806Z,4.60
2024-01-24T22:52:56.873Z,5.07
2024-01-24T22:55:26.920Z,5.78
2024-01-24T22:57:57.131Z,5.13
2024-01-24T23:00:29.816Z,5.15
2024-01-24T23:02:59.992Z,5.07
2024-01-24T23:05:30.119Z,5.32
2024-01-24T23:08:00.390Z,5.32
2024-01-24T23:10:30.497Z,5.13
2024-01-24T23:13:00.493Z,5.95
2024-01-24T23:15:33.168Z,6.15
2024-01-24T23:18:03.191Z,5.28
2024-01-24T23:20:33.369Z,4.80
2024-01-24T23:23:03.317Z,4.57
2024-01-24T23:25:33.495Z,5.00
2024-01-24T23:28:03.547Z,5.47
2024-01-24T23:30:36.562Z,5.32
2024-01-24T23:33:06.897Z,5.38
2024-01-24T23:35:36.924Z,5.28
2024-01-24T23:38:07.185Z,5.65
2024-01-24T23:40:37.216Z,4.90
2024-01-24T23:43:07.639Z,5.75
2024-01-24T23:45:40.713Z,4.95
2024-01-24T23:48:11.333Z,5.60
2024-01-24T23:50:41.534Z,5.20
2024-01-24T23:53:11.515Z,4.70
2024-01-24T23:55:41.421Z,5.28
2024-01-24T23:58:11.347Z,6.18
